createdAt,value
2019-04-03T00:01:20.112Z,81.20
2019-04-03T00:03:48.958Z,82.50
2019-04-03T00:06:17.827Z,82.90
2019-04-03T00:08:46.905Z,84.60
2019-04-03T00:11:15.794Z,85.40
2019-04-03T00:13:44.736Z,86.10
2019-04-03T00:16:16.313Z,86.70
2019-04-03T00:18:46.786Z,89.30
2019-04-03T00:21:15.722Z,90.20
2019-04-03T00:23:44.485Z,90.80
2019-04-03T00:26:13.334Z,90.80
2019-04-03T00:28:42.199Z,91.80
2019-04-03T00:31:11.043Z,92.20
2019-04-03T00:33:40.142Z,92.90
2019-04-03T00:36:09.199Z,93.80
2019-04-03T00:38:37.951Z,94.70
2019-04-03T00:41:06.891Z,95.30
2019-04-03T00:43:35.694Z,95.40
2019-04-03T00:46:04.651Z,95.80
2019-04-03T00:48:33.528Z,95.60
2019-04-03T00:51:02.453Z,96.20
2019-04-03T00:53:31.313Z,96.70
2019-04-03T00:56:00.288Z,96.70
2019-04-03T00:58:37.081Z,97.20
2019-04-03T01:01:08.402Z,97.90
2019-04-03T01:03:37.297Z,97.60
2019-04-03T01:06:06.430Z,98.50
2019-04-03T01:08:35.474Z,99.10
2019-04-03T01:11:04.859Z,99.30
2019-04-03T01:13:34.175Z,99.90
2019-04-03T01:16:03.223Z,99.90
2019-04-03T01:18:34.375Z,99.90
2019-04-03T01:21:02.778Z,99.90
2019-04-03T01:23:31.576Z,99.90
2019-04-03T01:26:00.390Z,99.90
2019-04-03T01:28:29.394Z,99.90
2019-04-03T01:30:58.556Z,99.90
2019-04-03T01:33:27.399Z,99.90
2019-04-03T01:35:56.446Z,99.90
2019-04-03T01:38:25.301Z,99.90
2019-04-03T01:40:54.164Z,99.90
2019-04-03T01:43:23.512Z,99.90
2019-04-03T01:45:52.537Z,99.20
2019-04-03T01:48:21.450Z,99.90
2019-04-03T01:50:50.299Z,99.90
2019-04-03T01:53:19.158Z,99.20
2019-04-03T01:55:47.989Z,99.50
2019-04-03T01:58:16.847Z,99.90
2019-04-03T02:00:45.715Z,99.90
2019-04-03T02:03:14.741Z,99.90
2019-04-03T02:05:44.118Z,99.90
2019-04-03T02:08:14.571Z,99.90
2019-04-03T02:10:43.784Z,99.90
2019-04-03T02:13:12.687Z,99.90
2019-04-03T02:15:41.518Z,99.90
2019-04-03T02:18:10.305Z,99.90
2019-04-03T02:20:39.200Z,99.90
2019-04-03T02:23:08.225Z,99.90
2019-04-03T02:25:37.075Z,99.90
2019-04-03T02:28:05.874Z,99.90
2019-04-03T02:30:34.866Z,99.90
2019-04-03T02:33:03.837Z,99.90
2019-04-03T02:35:32.850Z,99.90
2019-04-03T02:38:01.675Z,99.90
2019-04-03T02:40:32.537Z,99.90
2019-04-03T02:43:01.419Z,99.90
2019-04-03T02:45:30.200Z,99.90
2019-04-03T02:47:58.965Z,99.90
2019-04-03T02:50:27.916Z,99.90
2019-04-03T02:52:58.420Z,99.90
2019-04-03T02:55:27.395Z,99.90
2019-04-03T02:57:56.394Z,99.90
2019-04-03T03:00:25.420Z,99.90
2019-04-03T03:02:54.281Z,99.90
2019-04-03T03:05:26.887Z,99.90
2019-04-03T03:07:53.724Z,99.90
2019-04-03T03:10:22.691Z,99.90
2019-04-03T03:12:52.039Z,99.90
2019-04-03T03:15:21.595Z,99.90
2019-04-03T03:17:54.548Z,99.90
2019-04-03T03:20:24.043Z,99.90
2019-04-03T03:22:54.701Z,99.90
2019-04-03T03:25:24.059Z,99.90
2019-04-03T03:27:53.535Z,99.90
2019-04-03T03:30:41.769Z,99.90
2019-04-03T03:33:19.251Z,99.90
2019-04-03T03:35:31.170Z,99.90
2019-04-03T03:37:55.407Z,99.90
2019-04-03T03:40:25.370Z,99.90
2019-04-03T03:42:54.657Z,99.90
2019-04-03T03:45:23.836Z,99.90
2019-04-03T03:47:53.732Z,99.90
2019-04-03T03:50:25.794Z,99.90
2019-04-03T03:52:57.468Z,99.90
2019-04-03T03:55:26.565Z,99.90
2019-04-03T03:57:57.391Z,99.90
2019-04-03T04:00:26.549Z,99.90
2019-04-03T04:02:55.519Z,99.90
2019-04-03T04:05:24.498Z,99.90
2019-04-03T04:07:53.656Z,99.90
2019-04-03T04:10:25.213Z,99.90
2019-04-03T04:12:54.638Z,99.90
2019-04-03T04:15:26.238Z,99.90
2019-04-03T04:17:54.579Z,99.90
2019-04-03T04:20:23.589Z,99.90
2019-04-03T04:22:52.970Z,99.90
2019-04-03T04:25:22.398Z,99.90
2019-04-03T04:27:51.661Z,99.90
2019-04-03T04:30:21.958Z,99.90
2019-04-03T04:32:50.808Z,99.90
2019-04-03T04:35:21.531Z,99.90
2019-04-03T04:37:50.197Z,99.90
2019-04-03T04:40:19.075Z,99.90
2019-04-03T04:42:47.992Z,99.90
2019-04-03T04:45:17.052Z,99.90
2019-04-03T04:47:46.488Z,99.90
2019-04-03T04:50:24.248Z,99.90
2019-04-03T04:52:52.492Z,99.90
2019-04-03T04:55:21.591Z,99.90
2019-04-03T04:57:54.506Z,99.90
2019-04-03T05:00:23.768Z,99.90
2019-04-03T05:02:52.788Z,99.90
2019-04-03T05:05:27.183Z,99.90
2019-04-03T05:07:55.809Z,99.90
2019-04-03T05:10:25.336Z,99.90
2019-04-03T05:12:54.360Z,99.90
2019-04-03T05:15:23.749Z,99.90
2019-04-03T05:17:53.847Z,99.90
2019-04-03T05:20:22.972Z,99.90
2019-04-03T05:22:53.091Z,99.90
2019-04-03T05:25:23.683Z,99.90
2019-04-03T05:27:52.785Z,99.90
2019-04-03T05:30:32.674Z,99.90
2019-04-03T05:33:02.101Z,99.90
2019-04-03T05:35:31.161Z,99.90
2019-04-03T05:38:00.102Z,99.90
2019-04-03T05:40:28.994Z,99.90
2019-04-03T05:42:59.818Z,99.90
2019-04-03T05:45:28.588Z,99.90
2019-04-03T05:47:57.707Z,99.90
2019-04-03T05:50:27.184Z,99.90
2019-04-03T05:52:56.273Z,99.90
2019-04-03T05:55:25.398Z,99.90
2019-04-03T05:57:54.404Z,99.90
2019-04-03T06:00:23.319Z,99.90
2019-04-03T06:02:53.155Z,99.90
2019-04-03T06:05:22.569Z,99.90
2019-04-03T06:07:51.796Z,99.90
2019-04-03T06:10:21.003Z,99.90
2019-04-03T06:12:50.007Z,99.90
2019-04-03T06:15:21.699Z,99.90
2019-04-03T06:17:50.911Z,99.90
2019-04-03T06:20:20.641Z,99.90
2019-04-03T06:22:49.955Z,99.90
2019-04-03T06:25:19.663Z,99.90
2019-04-03T06:27:48.505Z,99.90
2019-04-03T06:30:17.538Z,99.90
2019-04-03T06:32:46.557Z,99.90
2019-04-03T06:35:15.575Z,99.90
2019-04-03T06:37:44.431Z,99.90
2019-04-03T06:40:14.168Z,99.90
2019-04-03T06:42:44.911Z,99.90
2019-04-03T06:45:16.002Z,99.90
2019-04-03T06:47:44.584Z,99.90
2019-04-03T06:50:16.725Z,99.90
2019-04-03T06:52:44.194Z,99.90
2019-04-03T06:55:13.212Z,99.90
2019-04-03T06:57:42.334Z,99.90
2019-04-03T07:00:11.749Z,99.90
2019-04-03T07:02:40.916Z,99.90
2019-04-03T07:05:10.976Z,99.90
2019-04-03T07:07:40.046Z,99.90
2019-04-03T07:10:09.726Z,99.90
2019-04-03T07:12:38.883Z,99.90
2019-04-03T07:15:08.398Z,99.90
2019-04-03T07:17:37.303Z,99.90
2019-04-03T07:20:13.689Z,99.90
2019-04-03T07:22:37.309Z,99.90
2019-04-03T07:25:06.936Z,99.90
2019-04-03T07:27:37.135Z,99.90
2019-04-03T07:30:07.444Z,99.90
2019-04-03T07:32:36.305Z,99.90
2019-04-03T07:35:09.355Z,99.90
2019-04-03T07:37:36.653Z,99.90
2019-04-03T07:40:06.869Z,99.90
2019-04-03T07:42:35.822Z,99.90
2019-04-03T07:45:06.026Z,99.90
2019-04-03T07:47:35.766Z,99.90
2019-04-03T07:50:06.869Z,99.90
2019-04-03T07:52:35.952Z,99.90
2019-04-03T07:55:06.055Z,99.90
2019-04-03T07:57:34.858Z,99.90
2019-04-03T08:00:07.121Z,99.90
2019-04-03T08:02:34.824Z,99.90
2019-04-03T08:05:04.743Z,99.70
2019-04-03T08:07:33.874Z,99.60
2019-04-03T08:10:02.903Z,99.00
2019-04-03T08:12:34.559Z,98.30
2019-04-03T08:15:02.434Z,97.70
2019-04-03T08:17:31.412Z,97.50
2019-04-03T08:20:00.391Z,97.10
2019-04-03T08:22:29.311Z,97.00
2019-04-03T08:24:58.259Z,97.20
2019-04-03T08:27:27.066Z,96.90
2019-04-03T08:29:55.899Z,96.90
2019-04-03T08:32:24.773Z,96.20
2019-04-03T08:34:53.646Z,95.10
2019-04-03T08:37:29.852Z,94.80
2019-04-03T08:39:53.288Z,94.90
2019-04-03T08:42:22.141Z,94.60
2019-04-03T08:44:51.180Z,94.50
2019-04-03T08:47:20.669Z,94.10
2019-04-03T08:49:49.527Z,93.80
2019-04-03T08:52:18.795Z,93.40
2019-04-03T08:54:47.585Z,93.20
2019-04-03T08:57:16.377Z,93.50
2019-04-03T08:59:46.832Z,93.30
2019-04-03T09:02:15.689Z,92.50
2019-04-03T09:04:45.964Z,91.90
2019-04-03T09:07:15.199Z,92.00
2019-04-03T09:09:44.248Z,91.90
2019-04-03T09:12:13.219Z,91.50
2019-04-03T09:14:42.121Z,91.90
2019-04-03T09:17:11.063Z,91.10
2019-04-03T09:19:42.007Z,90.40
2019-04-03T09:22:10.764Z,89.70
2019-04-03T09:24:39.892Z,89.40
2019-04-03T09:27:09.868Z,89.00
2019-04-03T09:29:39.617Z,88.20
2019-04-03T09:32:08.620Z,87.00
2019-04-03T09:34:37.518Z,85.60
2019-04-03T09:37:07.211Z,85.70
2019-04-03T09:39:36.305Z,84.30
2019-04-03T09:42:05.311Z,84.20
2019-04-03T09:44:34.291Z,82.20
2019-04-03T09:47:03.817Z,81.80
2019-04-03T09:49:32.788Z,79.30
2019-04-03T09:52:01.566Z,75.80
2019-04-03T09:54:30.437Z,75.40
2019-04-03T09:57:04.439Z,74.00
2019-04-03T09:59:29.726Z,73.70
2019-04-03T10:01:58.561Z,73.20
2019-04-03T10:04:27.566Z,72.20
2019-04-03T10:06:56.605Z,70.50
2019-04-03T10:09:25.542Z,69.00
2019-04-03T10:11:54.435Z,68.00
2019-04-03T10:14:23.296Z,67.60
2019-04-03T10:16:52.116Z,67.00
2019-04-03T10:19:21.250Z,64.20
2019-04-03T10:21:52.362Z,65.60
2019-04-03T10:24:20.675Z,63.10
2019-04-03T10:26:49.571Z,62.70
2019-04-03T10:29:19.078Z,59.60
2019-04-03T10:31:48.534Z,58.90
2019-04-03T10:34:17.385Z,58.20
2019-04-03T10:36:46.319Z,56.40
2019-04-03T10:39:15.141Z,54.50
2019-04-03T10:41:44.066Z,52.20
2019-04-03T10:44:13.022Z,50.50
2019-04-03T10:46:42.222Z,48.60
2019-04-03T10:49:11.198Z,47.50
2019-04-03T10:51:41.614Z,46.80
2019-04-03T10:54:10.966Z,46.50
2019-04-03T10:56:39.919Z,45.70
2019-04-03T10:59:11.557Z,45.40
2019-04-03T11:01:39.350Z,44.80
2019-04-03T11:04:08.305Z,43.60
2019-04-03T11:06:37.857Z,45.80
2019-04-03T11:09:10.234Z,46.00
2019-04-03T11:11:39.415Z,45.10
2019-04-03T11:14:08.622Z,45.30
2019-04-03T11:16:39.127Z,45.50
2019-04-03T11:19:08.119Z,43.80
2019-04-03T11:21:36.999Z,43.20
2019-04-03T11:24:06.662Z,41.40
2019-04-03T11:26:36.209Z,40.60
2019-04-03T11:29:08.817Z,40.30
2019-04-03T11:31:41.213Z,40.50
2019-04-03T11:34:07.152Z,40.80
2019-04-03T11:36:36.289Z,38.90
2019-04-03T11:39:14.966Z,38.20
2019-04-03T11:41:39.731Z,37.10
2019-04-03T11:44:08.527Z,37.10
2019-04-03T11:46:37.645Z,36.10
2019-04-03T11:49:06.697Z,35.20
2019-04-03T11:51:35.569Z,35.90
2019-04-03T11:54:06.791Z,35.70
2019-04-03T11:56:35.095Z,36.80
2019-04-03T11:59:04.083Z,37.90
2019-04-03T12:01:33.173Z,38.00
2019-04-03T12:04:02.055Z,37.90
2019-04-03T12:06:31.087Z,39.00
2019-04-03T12:09:01.133Z,40.50
2019-04-03T12:11:30.111Z,39.30
2019-04-03T12:13:58.937Z,37.00
2019-04-03T12:16:28.007Z,38.90
2019-04-03T12:18:57.124Z,36.60
2019-04-03T12:21:26.332Z,37.10
2019-04-03T12:23:57.867Z,38.40
2019-04-03T12:26:25.763Z,39.40
2019-04-03T12:28:54.850Z,39.30
2019-04-03T12:31:23.841Z,38.90
2019-04-03T12:33:58.492Z,38.20
2019-04-03T12:36:23.167Z,39.70
2019-04-03T12:38:54.591Z,40.10
2019-04-03T12:41:22.580Z,40.50
2019-04-03T12:43:51.482Z,40.80
2019-04-03T12:46:36.918Z,41.50
2019-04-03T12:49:08.016Z,41.70
2019-04-03T12:51:37.085Z,42.70
2019-04-03T12:54:06.186Z,43.50
2019-04-03T12:56:36.059Z,43.50
2019-04-03T12:59:07.465Z,43.60
2019-04-03T13:01:35.964Z,43.40
2019-04-03T13:04:05.098Z,43.60
2019-04-03T13:06:33.983Z,44.10
2019-04-03T13:09:03.390Z,43.40
2019-04-03T13:11:33.438Z,43.40
2019-04-03T13:14:02.949Z,43.70
2019-04-03T13:16:32.161Z,43.20
2019-04-03T13:19:01.635Z,42.50
2019-04-03T13:21:30.620Z,43.10
2019-04-03T13:23:59.865Z,42.00
2019-04-03T13:26:28.842Z,42.80
2019-04-03T13:28:57.704Z,42.80
2019-04-03T13:31:26.490Z,43.50
2019-04-03T13:33:55.627Z,44.50
2019-04-03T13:36:25.117Z,45.00
2019-04-03T13:38:54.418Z,45.40
2019-04-03T13:41:23.642Z,44.80
2019-04-03T13:43:54.402Z,44.20
2019-04-03T13:46:23.466Z,44.20
2019-04-03T13:48:52.889Z,43.80
2019-04-03T13:51:22.225Z,43.50
2019-04-03T13:53:53.064Z,44.60
2019-04-03T13:56:23.724Z,45.50
2019-04-03T13:58:54.145Z,45.00
2019-04-03T14:01:23.730Z,44.70
2019-04-03T14:03:52.777Z,44.70
2019-04-03T14:06:21.872Z,45.20
2019-04-03T14:08:50.965Z,45.00
2019-04-03T14:11:19.852Z,44.60
2019-04-03T14:13:48.865Z,45.00
2019-04-03T14:16:21.517Z,45.30
2019-04-03T14:18:50.398Z,44.90
2019-04-03T14:21:19.577Z,44.50
2019-04-03T14:23:52.062Z,43.80
2019-04-03T14:26:21.549Z,44.20
2019-04-03T14:28:52.253Z,44.40
2019-04-03T14:31:32.721Z,44.80
2019-04-03T14:33:54.988Z,44.70
2019-04-03T14:36:28.946Z,44.20
2019-04-03T14:38:58.496Z,43.60
2019-04-03T14:41:28.019Z,43.80
2019-04-03T14:43:57.460Z,44.30
2019-04-03T14:46:26.464Z,44.20
2019-04-03T14:49:02.990Z,44.10
2019-04-03T14:51:31.051Z,44.00
2019-04-03T14:54:00.488Z,46.20
2019-04-03T14:56:30.438Z,45.30
2019-04-03T14:59:00.737Z,43.70
2019-04-03T15:01:29.968Z,42.30
2019-04-03T15:04:00.756Z,41.40
2019-04-03T15:06:29.483Z,40.20
2019-04-03T15:08:58.608Z,41.20
2019-04-03T15:11:27.605Z,42.00
2019-04-03T15:13:56.653Z,41.90
2019-04-03T15:16:26.815Z,41.90
2019-04-03T15:18:55.772Z,42.30
2019-04-03T15:21:25.309Z,43.20
2019-04-03T15:23:54.261Z,42.80
2019-04-03T15:26:23.173Z,43.40
2019-04-03T15:28:52.576Z,44.00
2019-04-03T15:31:23.888Z,42.80
2019-04-03T15:33:54.264Z,44.10
2019-04-03T15:36:23.194Z,44.10
2019-04-03T15:38:52.169Z,43.40
2019-04-03T15:41:21.669Z,43.00
2019-04-03T15:43:51.954Z,42.50
2019-04-03T15:46:21.059Z,43.40
2019-04-03T15:48:52.530Z,43.00
2019-04-03T15:51:20.956Z,43.40
2019-04-03T15:53:50.045Z,43.60
2019-04-03T15:56:24.220Z,43.80
2019-04-03T15:58:53.243Z,43.70
2019-04-03T16:01:22.094Z,43.40
2019-04-03T16:03:51.232Z,43.40
2019-04-03T16:06:20.202Z,43.10
2019-04-03T16:08:49.110Z,43.00
2019-04-03T16:11:18.463Z,43.30
2019-04-03T16:13:48.163Z,44.00
2019-04-03T16:16:17.783Z,43.90
2019-04-03T16:18:46.851Z,43.60
2019-04-03T16:21:16.162Z,43.90
2019-04-03T16:23:45.287Z,44.90
2019-04-03T16:26:14.637Z,44.80
2019-04-03T16:28:44.180Z,45.10
2019-04-03T16:31:13.733Z,45.30
2019-04-03T16:33:42.777Z,45.80
2019-04-03T16:36:12.163Z,46.00
2019-04-03T16:38:41.446Z,46.10
2019-04-03T16:41:11.601Z,46.50
2019-04-03T16:43:40.814Z,46.40
2019-04-03T16:46:10.958Z,46.70
2019-04-03T16:48:41.120Z,46.50
2019-04-03T16:51:10.240Z,46.60
2019-04-03T16:53:39.472Z,47.10
2019-04-03T16:56:09.465Z,46.30
2019-04-03T16:58:40.426Z,47.60
2019-04-03T17:01:12.864Z,47.80
2019-04-03T17:03:40.358Z,48.00
2019-04-03T17:06:09.309Z,48.00
2019-04-03T17:08:38.455Z,48.10
2019-04-03T17:11:07.490Z,48.10
2019-04-03T17:13:36.794Z,48.70
2019-04-03T17:16:06.933Z,48.90
2019-04-03T17:18:47.478Z,49.30
2019-04-03T17:21:16.775Z,49.40
2019-04-03T17:23:46.298Z,49.50
2019-04-03T17:26:15.600Z,49.80
2019-04-03T17:28:44.478Z,50.20
2019-04-03T17:31:13.355Z,50.40
2019-04-03T17:33:42.537Z,50.00
2019-04-03T17:36:11.792Z,50.50
2019-04-03T17:38:40.802Z,50.50
2019-04-03T17:41:09.974Z,50.60
2019-04-03T17:43:38.777Z,50.90
2019-04-03T17:46:07.729Z,50.90
2019-04-03T17:48:36.638Z,50.90
2019-04-03T17:51:05.619Z,51.10
2019-04-03T17:53:36.423Z,51.50
2019-04-03T17:56:05.285Z,51.40
2019-04-03T17:58:34.236Z,51.70
2019-04-03T18:01:03.404Z,51.30
2019-04-03T18:03:32.304Z,51.60
2019-04-03T18:06:02.186Z,51.80
2019-04-03T18:08:32.588Z,52.20
2019-04-03T18:11:01.875Z,52.40
2019-04-03T18:13:31.018Z,52.60
2019-04-03T18:16:00.128Z,52.80
2019-04-03T18:18:29.072Z,52.60
2019-04-03T18:20:57.951Z,52.80
2019-04-03T18:23:26.923Z,52.90
2019-04-03T18:25:57.786Z,53.00
2019-04-03T18:28:26.757Z,53.20
2019-04-03T18:30:55.907Z,53.30
2019-04-03T18:33:24.918Z,53.30
2019-04-03T18:35:56.425Z,53.40
2019-04-03T18:38:24.663Z,53.70
2019-04-03T18:40:53.568Z,53.60
2019-04-03T18:43:22.588Z,53.80
2019-04-03T18:45:51.469Z,54.10
2019-04-03T18:48:20.408Z,54.40
2019-04-03T18:50:49.496Z,54.10
2019-04-03T18:53:18.395Z,54.00
2019-04-03T18:55:47.420Z,54.60
2019-04-03T18:58:16.270Z,54.60
2019-04-03T19:00:45.221Z,54.30
2019-04-03T19:03:14.251Z,54.80
2019-04-03T19:05:43.367Z,54.90
2019-04-03T19:08:13.728Z,54.90
2019-04-03T19:10:42.850Z,55.20
2019-04-03T19:13:13.738Z,55.10
2019-04-03T19:15:42.402Z,55.20
2019-04-03T19:18:19.357Z,55.40
2019-04-03T19:20:41.972Z,55.50
2019-04-03T19:23:11.167Z,55.30
2019-04-03T19:25:40.362Z,55.50
2019-04-03T19:28:09.226Z,55.50
2019-04-03T19:30:38.585Z,55.90
2019-04-03T19:33:07.741Z,55.90
2019-04-03T19:35:36.818Z,55.80
2019-04-03T19:38:05.789Z,56.00
2019-04-03T19:40:34.687Z,56.00
2019-04-03T19:43:03.767Z,56.20
2019-04-03T19:45:32.870Z,56.30
2019-04-03T19:48:01.779Z,56.30
2019-04-03T19:50:31.843Z,56.50
2019-04-03T19:53:01.428Z,56.70
2019-04-03T19:55:30.347Z,56.90
2019-04-03T19:57:59.308Z,57.10
2019-04-03T20:00:28.271Z,57.20
2019-04-03T20:02:57.163Z,57.10
2019-04-03T20:05:26.509Z,57.20
2019-04-03T20:07:58.933Z,57.60
2019-04-03T20:10:27.735Z,57.60
2019-04-03T20:12:56.967Z,57.80
2019-04-03T20:15:26.019Z,58.00
2019-04-03T20:17:55.486Z,58.20
2019-04-03T20:20:24.510Z,58.00
2019-04-03T20:22:53.638Z,58.10
2019-04-03T20:25:22.533Z,58.20
2019-04-03T20:27:52.321Z,58.20
2019-04-03T20:30:21.495Z,58.30
2019-04-03T20:32:50.506Z,58.50
2019-04-03T20:35:19.353Z,58.50
2019-04-03T20:37:48.166Z,58.50
2019-04-03T20:40:17.572Z,58.60
2019-04-03T20:42:46.502Z,58.50
2019-04-03T20:45:18.788Z,58.40
2019-04-03T20:47:46.066Z,58.50
2019-04-03T20:50:16.297Z,58.40
2019-04-03T20:52:46.175Z,58.80
2019-04-03T20:55:16.772Z,58.90
2019-04-03T20:57:55.504Z,59.00
2019-04-03T21:00:19.062Z,59.20
2019-04-03T21:02:48.148Z,59.30
2019-04-03T21:05:18.649Z,59.50
2019-04-03T21:07:47.646Z,59.80
2019-04-03T21:10:16.584Z,60.00
2019-04-03T21:12:45.619Z,59.70
2019-04-03T21:15:14.564Z,59.80
2019-04-03T21:17:43.449Z,60.30
2019-04-03T21:20:12.427Z,60.30
2019-04-03T21:22:41.322Z,60.20
2019-04-03T21:25:10.255Z,60.30
2019-04-03T21:27:40.069Z,60.40
2019-04-03T21:30:10.483Z,61.00
2019-04-03T21:32:39.592Z,62.00
2019-04-03T21:35:08.916Z,62.20
2019-04-03T21:37:39.600Z,61.90
2019-04-03T21:40:08.617Z,62.40
2019-04-03T21:42:37.511Z,62.20
2019-04-03T21:45:08.077Z,62.60
2019-04-03T21:47:37.173Z,63.30
2019-04-03T21:50:06.977Z,63.10
2019-04-03T21:52:36.094Z,63.60
2019-04-03T21:55:06.635Z,63.70
2019-04-03T21:57:38.307Z,63.70
2019-04-03T22:00:08.191Z,63.40
2019-04-03T22:02:37.125Z,64.30
2019-04-03T22:05:07.358Z,64.60
2019-04-03T22:07:36.372Z,64.20
2019-04-03T22:10:08.631Z,64.30
2019-04-03T22:12:36.694Z,64.60
2019-04-03T22:15:07.509Z,64.90
2019-04-03T22:17:36.343Z,65.30
2019-04-03T22:20:05.698Z,65.20
2019-04-03T22:22:35.178Z,65.20
2019-04-03T22:25:04.238Z,65.10
2019-04-03T22:27:33.140Z,66.00
2019-04-03T22:30:01.935Z,65.90
2019-04-03T22:32:33.221Z,65.80
2019-04-03T22:35:02.021Z,66.20
2019-04-03T22:37:30.930Z,66.40
2019-04-03T22:39:59.803Z,66.80
2019-04-03T22:42:28.631Z,67.80
2019-04-03T22:44:57.536Z,68.40
2019-04-03T22:47:26.364Z,68.20
2019-04-03T22:49:55.158Z,68.00
2019-04-03T22:52:23.928Z,68.20
2019-04-03T22:54:52.895Z,68.00
2019-04-03T22:57:21.740Z,68.30
2019-04-03T22:59:50.656Z,67.90
2019-04-03T23:02:19.442Z,67.70
2019-04-03T23:04:48.268Z,67.40
2019-04-03T23:07:18.895Z,67.20
2019-04-03T23:09:47.820Z,67.20
2019-04-03T23:12:16.713Z,67.20
2019-04-03T23:14:45.504Z,67.30
2019-04-03T23:17:14.568Z,67.70
2019-04-03T23:19:43.557Z,67.50
2019-04-03T23:22:12.553Z,67.40
2019-04-03T23:24:41.482Z,67.50
2019-04-03T23:27:10.386Z,67.60
2019-04-03T23:29:39.157Z,67.50
2019-04-03T23:32:08.056Z,67.40
2019-04-03T23:34:37.096Z,67.20
2019-04-03T23:37:05.995Z,67.00
2019-04-03T23:39:34.934Z,66.70
2019-04-03T23:42:06.588Z,66.50
2019-04-03T23:44:34.319Z,66.70
2019-04-03T23:47:03.243Z,66.70
2019-04-03T23:49:32.110Z,66.70
2019-04-03T23:52:00.904Z,66.90
2019-04-03T23:54:29.708Z,67.20
2019-04-03T23:56:58.567Z,67.10
2019-04-03T23:59:27.460Z,68.40
